Charlottesville, VA (22905)

3:59 PM EDT on September 04, 2015 (GMT -0400)
Charlottesville 2W | | Change Station
CLOSE
Current Station
Personal Weather Station
Location: Charlottesville, VA
Elevation: 866 ft
Nearby Weather Stations

Elev 866 ft 38.03 °N, 78.52 °W | Updated 1 second ago

Overcast
Overcast
81.7 °F
Feels Like 85 °F
N
0.0
Wind Variable Wind from North
Gusts 0.0 mph

Today
High -- | Low -- °F
--% Chance of Precip.
Yesterday
High -- | Low -- °F
Precip. -- in
6:46 AM 7:39 PM
Waning Gibbous, 56% visible
Pressure 29.99 in
Visibility 10.0 miles
Clouds Few 4000 ft
Heat Index 85 °F
Dew Point 70 °F
Humidity 68%
Rainfall 0.00 in
Snow Depth Not available.
UV 5 out of 12
Pollen 8.60 out of 12
Air Quality Not available.
Flu Activity Not available.
METAR KCHO 041953Z 33003KT 10SM FEW040 28/21 A3001 RMK AO2 LTG DSNT ALQDS SLP154 T02830206
Pressure 29.99 in
Visibility 10.0 miles
Clouds Few 4000 ft
Heat Index 85 °F
Dew Point 70 °F
Humidity 68%
Rainfall 0.00 in
Snow Depth Not available.
UV 5 out of 12
Pollen 8.60 out of 12
Air Quality Not available.
Flu Activity Not available.
METAR KCHO 041953Z 33003KT 10SM FEW040 28/21 A3001 RMK AO2 LTG DSNT ALQDS SLP154 T02830206
Nowcast | as of 3:43 PM EDT on September 4, 2015

a strong thunderstorm will affect southwestern Orange...City of Charlottesville...central Albemarle and east central Nelson counties... At 343 PM EDT...a strong thunderstorm was near Schuyler...or 17 miles northeast of Clifford...moving southwest at 20 mph. Winds in excess of 40 mph and pea size hail are possible with this storm. Locations impacted include... Charlottesville...Orange...Schuyler...Campbell...Westmoreland... Gordonsville...Somerset...Keene...Keswick...Faber...Woodridge...Scott stadium...Glendower...Monticello...Covesville...Thornhill... Montpelier Station...Boyd Tavern...Barboursville and Lahore. Lat...Lon 3787 7887 3830 7804 3814 7792 3812 7796 3812 7798 3814 7801 3814 7805 3815 7810 3814 7813 3813 7821 3807 7825 3784 7845 3772 7875 time...Mot...loc 1943z 043deg 16kt 3782 7879

×

10-Day Weather Forecast

×

Almanac

Astronomy

Sep. 04, 2015 Rise Set
Actual Time
Civil Twilight
Nautical Twilight
Astronomical Twilight
Moon
Length of Visible Light
Length of Day
Tomorrow will be .
, % of the Moon is Illuminated

Today's Extremes

State Highs State Lows

Community

WunderPhotos

Upload Photos

1,852,272 photos uploaded!

WunderBlogs® & News

Nearby

Air Quality

  Air Quality AQ Index Pollutant
Not available.

Snow Depth

Station Depth Elevation

Earthquake Activity

City Distance Mag. Time & Date
Minimum magnitude displayed is 2.5.

Coastal Water Temperatures

Place Temperature

Stations

Nearby Weather Stations

Station Location Temp. Windchill Dew Point Humidity Wind Precip. Elev Updated Type